createdAt,value
2018-05-17T00:00:07.688Z,78.7
2018-05-17T00:00:48.421Z,78.8
2018-05-17T00:01:28.860Z,79.28
2018-05-17T00:02:12.350Z,78.99
2018-05-17T00:02:53.169Z,79.37
2018-05-17T00:03:34.827Z,78.51
2018-05-17T00:04:15.290Z,78.99
2018-05-17T00:04:56.073Z,78.89
2018-05-17T00:05:36.513Z,78.8
2018-05-17T00:06:17.380Z,79.08
2018-05-17T00:07:00.409Z,78.42
2018-05-17T00:07:41.087Z,77.75
2018-05-17T00:08:24.129Z,78.42
2018-05-17T00:09:05.025Z,78.99
2018-05-17T00:09:46.216Z,79.47
2018-05-17T00:10:31.822Z,79.08
2018-05-17T00:11:12.552Z,79.28
2018-05-17T00:11:53.681Z,79.37
2018-05-17T00:12:34.552Z,78.99
2018-05-17T00:13:21.219Z,78.42
2018-05-17T00:14:01.887Z,78.51
2018-05-17T00:14:42.445Z,78.32
2018-05-17T00:15:25.314Z,78.13
2018-05-17T00:16:06.852Z,78.32
2018-05-17T00:16:49.267Z,77.55
2018-05-17T00:17:30.025Z,77.46
2018-05-17T00:18:11.424Z,78.42
2018-05-17T00:18:51.810Z,78.42
2018-05-17T00:19:34.407Z,78.99
2018-05-17T00:20:14.587Z,78.03
2018-05-17T00:20:58.384Z,77.75
2018-05-17T00:21:38.650Z,78.42
2018-05-17T00:22:19.430Z,78.99
2018-05-17T00:22:59.825Z,78.7
2018-05-17T00:23:40.811Z,78.13
2018-05-17T00:24:21.185Z,77.8
2018-05-17T00:25:02.515Z,76.75
2018-05-17T00:25:43.349Z,77.33
2018-05-17T00:26:27.181Z,77.51
2018-05-17T00:27:07.470Z,76.27
2018-05-17T00:27:48.806Z,76.94
2018-05-17T00:28:29.541Z,77.42
2018-05-17T00:29:11.304Z,77.51
2018-05-17T00:29:53.257Z,77.13
2018-05-17T00:30:33.407Z,77.51
2018-05-17T00:31:14.134Z,76.37
2018-05-17T00:31:54.809Z,77.51
2018-05-17T00:32:35.592Z,77.33
2018-05-17T00:33:19.838Z,77.42
2018-05-17T00:34:00.282Z,76.27
2018-05-17T00:34:40.829Z,75.7
2018-05-17T00:35:21.620Z,75.89
2018-05-17T00:36:03.477Z,75.7
2018-05-17T00:36:47.279Z,75.79
2018-05-17T00:37:28.158Z,76.46
2018-05-17T00:38:08.473Z,75.89
2018-05-17T00:38:49.350Z,75.79
2018-05-17T00:39:30.714Z,75.79
2018-05-17T00:40:11.709Z,75.76
2018-05-17T00:40:53.367Z,75.47
2018-05-17T00:41:34.172Z,76.52
2018-05-17T00:42:17.279Z,76.9
2018-05-17T00:42:58.563Z,75.66
2018-05-17T00:43:39.318Z,75.85
2018-05-17T00:44:19.635Z,75.18
2018-05-17T00:45:01.849Z,75.85
2018-05-17T00:45:44.843Z,75.37
2018-05-17T00:46:25.735Z,75.66
2018-05-17T00:47:06.487Z,76.23
2018-05-17T00:47:47.994Z,76.52
2018-05-17T00:48:28.866Z,76.52
2018-05-17T00:49:10.307Z,77.38
2018-05-17T00:49:51.155Z,76.62
2018-05-17T00:50:31.785Z,76.71
2018-05-17T00:51:13.325Z,77.19
2018-05-17T00:51:53.801Z,77.57
2018-05-17T00:52:34.522Z,77
2018-05-17T00:53:14.897Z,76.62
2018-05-17T00:53:55.779Z,76.42
2018-05-17T00:54:37.307Z,77
2018-05-17T00:55:19.146Z,77.95
2018-05-17T00:56:00.211Z,78.34
2018-05-17T00:56:44.005Z,78.43
2018-05-17T00:57:24.350Z,77.76
2018-05-17T00:58:05.094Z,77.76
2018-05-17T00:58:49.611Z,77.95
2018-05-17T00:59:32.689Z,77.95
2018-05-17T01:00:13.726Z,78.24
2018-05-17T01:00:55.225Z,78.43
2018-05-17T01:01:38.172Z,78.34
2018-05-17T01:02:23.195Z,78.05
2018-05-17T01:03:03.843Z,77.48
2018-05-17T01:03:44.220Z,77.19
2018-05-17T01:04:26.704Z,77.86
2018-05-17T01:05:09.608Z,78.24
2018-05-17T01:05:49.936Z,77.76
2018-05-17T01:06:30.682Z,77.48
2018-05-17T01:07:12.360Z,77.38
2018-05-17T01:07:53.788Z,76.9
2018-05-17T01:08:35.307Z,76.52
2018-05-17T01:09:16.693Z,76.9
2018-05-17T01:09:57.662Z,77.38
2018-05-17T01:10:38.404Z,77.38
2018-05-17T01:11:19.171Z,76.62
2018-05-17T01:11:59.845Z,77
2018-05-17T01:14:18.038Z,77.09
2018-05-17T01:15:04.656Z,75.66
2018-05-17T01:15:44.863Z,75.66
2018-05-17T01:16:26.106Z,75.27
2018-05-17T01:17:06.860Z,75.43
2018-05-17T01:17:48.980Z,75.52
2018-05-17T01:18:29.670Z,75.62
2018-05-17T01:19:11.285Z,76.2
2018-05-17T01:19:51.706Z,77.25
2018-05-17T01:20:33.655Z,75.43
2018-05-17T01:21:16.069Z,74.85
2018-05-17T01:21:56.808Z,74.95
2018-05-17T01:22:37.486Z,75.34
2018-05-17T01:23:18.464Z,76.57
2018-05-17T01:23:59.920Z,77.44
2018-05-17T01:24:41.574Z,76.48
2018-05-17T01:25:23.124Z,75.34
2018-05-17T01:26:03.470Z,74.76
2018-05-17T01:26:44.064Z,74.38
2018-05-17T01:27:24.912Z,74.38
2018-05-17T01:28:05.028Z,74.48
2018-05-17T01:28:45.845Z,74.38
2018-05-17T01:29:26.404Z,75.43
2018-05-17T01:30:06.962Z,74.57
2018-05-17T01:30:48.353Z,73.71
2018-05-17T01:31:28.439Z,73.99
2018-05-17T01:32:11.150Z,74.48
2018-05-17T01:32:53.800Z,74.66
2018-05-17T01:33:34.430Z,75.05
2018-05-17T01:34:15.068Z,74.66
2018-05-17T01:34:56.472Z,74.38
2018-05-17T01:35:39.812Z,75.71
2018-05-17T01:36:20.539Z,76.48
2018-05-17T01:37:01.690Z,75.14
2018-05-17T01:37:42.366Z,74.66
2018-05-17T01:38:23.529Z,74.38
2018-05-17T01:39:11.572Z,75.43
2018-05-17T01:39:52.264Z,74.09
2018-05-17T01:40:33.116Z,74.28
2018-05-17T01:41:14.154Z,74.09
2018-05-17T01:41:57.256Z,74.66
2018-05-17T01:42:38.940Z,73.52
2018-05-17T01:43:19.547Z,74.38
2018-05-17T01:44:00.144Z,74.95
2018-05-17T01:44:40.592Z,75.05
2018-05-17T01:45:21.275Z,75.14
2018-05-17T01:46:02.616Z,75.05
2018-05-17T01:46:43.689Z,75.24
2018-05-17T01:47:25.417Z,74.38
2018-05-17T01:48:06.003Z,75.05
2018-05-17T01:48:46.806Z,75.34
2018-05-17T01:49:27.654Z,73.96
2018-05-17T01:50:08.509Z,74.19
2018-05-17T01:50:51.848Z,75.01
2018-05-17T01:51:33.147Z,75.01
2018-05-17T01:52:13.786Z,75.39
2018-05-17T01:52:54.352Z,75.59
2018-05-17T01:53:38.043Z,75.49
2018-05-17T01:54:20.857Z,75.59
2018-05-17T01:55:02.500Z,75.3
2018-05-17T01:55:43.202Z,75.49
2018-05-17T01:56:25.329Z,75.3
2018-05-17T01:57:06.750Z,76.45
2018-05-17T02:06:20.276Z,75.3
2018-05-17T02:07:06.933Z,76.25
2018-05-17T02:07:47.469Z,75.78
2018-05-17T02:08:27.871Z,75.1
2018-05-17T02:09:08.668Z,75.68
2018-05-17T02:09:49.036Z,75.68
2018-05-17T02:10:29.559Z,74.63
2018-05-17T02:11:10.986Z,74.73
2018-05-17T02:11:51.922Z,75.3
2018-05-17T02:12:42.456Z,75.1
2018-05-17T02:13:22.693Z,75.01
2018-05-17T02:14:03.977Z,76.35
2018-05-17T02:14:44.084Z,76.25
2018-05-17T02:15:24.550Z,76.25
2018-05-17T02:16:06.040Z,76.73
2018-05-17T02:16:47.354Z,76.35
2018-05-17T02:19:10.120Z,76.16
2018-05-17T02:19:55.694Z,75.78
2018-05-17T02:20:36.243Z,75.59
2018-05-17T02:21:18.440Z,75.78
2018-05-17T02:22:02.854Z,75.3
2018-05-17T02:22:46.262Z,75.59
2018-05-17T02:23:27.029Z,75.3
2018-05-17T02:24:07.471Z,76.54
2018-05-17T02:24:49.263Z,76.25
2018-05-17T02:25:29.887Z,77.11
2018-05-17T02:26:10.331Z,75.68
2018-05-17T02:26:51.397Z,74.53
2018-05-17T02:27:32.385Z,75.78
2018-05-17T02:28:15.149Z,75.78
2018-05-17T02:28:57.229Z,75.49
2018-05-17T02:29:37.692Z,75.78
2018-05-17T02:30:18.471Z,75.39
2018-05-17T02:30:59.871Z,75.3
2018-05-17T02:31:40.195Z,75.68
2018-05-17T02:32:20.783Z,75.49
2018-05-17T02:33:02.450Z,75.68
2018-05-17T02:33:42.818Z,75.68
2018-05-17T02:34:23.376Z,76.82
2018-05-17T02:35:04.064Z,76.92
2018-05-17T02:35:44.770Z,76.73
2018-05-17T02:36:25.588Z,76.25
2018-05-17T02:37:08.360Z,75.78
2018-05-17T02:37:56.863Z,76.35
2018-05-17T02:38:39.578Z,76.06
2018-05-17T02:39:20.579Z,75.1
2018-05-17T02:40:01.243Z,75.39
2018-05-17T02:40:41.675Z,76.35
2018-05-17T02:41:23.116Z,76.54
2018-05-17T02:42:05.982Z,77.21
2018-05-17T02:42:46.541Z,76.16
2018-05-17T02:43:33.514Z,75.2
2018-05-17T02:44:15.290Z,76.54
2018-05-17T02:44:56.519Z,76.16
2018-05-17T02:45:37.224Z,76.25
2018-05-17T02:46:18.638Z,76.64
2018-05-17T02:47:02.309Z,76.39
2018-05-17T02:47:42.916Z,76.77
2018-05-17T02:48:23.292Z,76.29
2018-05-17T02:49:05.148Z,75.81
2018-05-17T02:49:46.089Z,74.76
2018-05-17T02:50:26.515Z,75.05
2018-05-17T02:51:07.002Z,75.81
2018-05-17T02:51:48.939Z,74.85
2018-05-17T02:52:30.612Z,74.66
2018-05-17T02:53:12.096Z,75.49
2018-05-17T02:53:52.485Z,74.85
2018-05-17T02:54:35.047Z,75.3
2018-05-17T02:55:16.680Z,74.82
2018-05-17T02:55:57.326Z,74.63
2018-05-17T02:56:38.266Z,75.3
2018-05-17T02:57:18.679Z,75.39
2018-05-17T02:58:02.433Z,75.01
2018-05-17T02:58:45.642Z,75.2
2018-05-17T02:59:26.600Z,74.91
2018-05-17T03:00:07.345Z,75.01
2018-05-17T03:00:47.849Z,75.49
2018-05-17T03:01:30.184Z,74.63
2018-05-17T03:02:10.925Z,75.39
2018-05-17T03:02:52.889Z,75.2
2018-05-17T03:03:33.417Z,75.3
2018-05-17T03:04:16.329Z,75.3
2018-05-17T03:04:56.816Z,75.1
2018-05-17T03:05:37.984Z,75.3
2018-05-17T03:06:18.926Z,75.2
2018-05-17T03:06:59.365Z,75.49
2018-05-17T03:07:39.760Z,75.39
2018-05-17T03:08:20.102Z,75.01
2018-05-17T03:09:03.310Z,75.3
2018-05-17T03:09:43.826Z,75.49
2018-05-17T03:10:24.574Z,75.1
2018-05-17T03:11:05.300Z,75.2
2018-05-17T03:11:47.962Z,75.39
2018-05-17T03:12:30.727Z,75.26
2018-05-17T03:13:11.331Z,75.74
2018-05-17T03:13:52.757Z,75.2
2018-05-17T03:14:34.601Z,75.3
2018-05-17T03:15:15.256Z,75.59
2018-05-17T03:15:58.529Z,75.2
2018-05-17T03:16:39.721Z,75.07
2018-05-17T03:21:33.999Z,74.98
2018-05-17T03:22:21.892Z,76.21
2018-05-17T03:23:03.533Z,75.16
2018-05-17T03:23:44.787Z,76.5
2018-05-17T03:24:25.237Z,76.21
2018-05-17T03:25:06.621Z,75.74
2018-05-17T03:25:47.669Z,76.5
2018-05-17T03:26:28.345Z,76.69
2018-05-17T03:27:09.205Z,75.54
2018-05-17T03:27:49.770Z,76.21
2018-05-17T03:28:32.974Z,76.31
2018-05-17T03:29:14.066Z,75.93
2018-05-17T03:29:55.523Z,75.54
2018-05-17T03:30:36.039Z,75.45
2018-05-17T03:31:18.298Z,74.98
2018-05-17T03:31:59.111Z,74.88
2018-05-17T03:32:39.648Z,75.07
2018-05-17T03:33:23.134Z,75.07
2018-05-17T03:34:03.587Z,75.45
2018-05-17T03:34:47.056Z,75.07
2018-05-17T03:46:04.909Z,75.26
2018-05-17T03:46:55.068Z,75.54
2018-05-17T03:52:44.969Z,74.4
2018-05-17T03:55:08.919Z,75.74
2018-05-17T03:55:53.784Z,75.54
2018-05-17T03:56:38.534Z,76.21
2018-05-17T03:57:19.925Z,75.54
2018-05-17T03:58:00.650Z,74.49
2018-05-17T03:58:43.644Z,75.26
2018-05-17T03:59:24.650Z,74.78
2018-05-17T04:00:05.591Z,75.64
2018-05-17T04:00:49.926Z,74.49
2018-05-17T04:01:32.579Z,75.07
2018-05-17T04:02:15.243Z,75.64
2018-05-17T04:43:24.375Z,77.03
2018-05-17T04:44:04.800Z,76.33
2018-05-17T04:44:45.175Z,77.86
2018-05-17T04:45:25.520Z,78.66
2018-05-17T04:46:05.940Z,79.28
2018-05-17T04:46:46.372Z,79.67
2018-05-17T04:47:26.709Z,79.38
2018-05-17T04:48:07.111Z,78.85
2018-05-17T04:48:47.525Z,78.75
2018-05-17T04:49:27.970Z,78.37
2018-05-17T04:50:08.357Z,77.7
2018-05-17T04:50:48.787Z,77.13
2018-05-17T04:51:29.133Z,77.61
2018-05-17T04:52:09.550Z,76.94
2018-05-17T04:52:49.940Z,77.03
2018-05-17T04:53:30.325Z,76.37
2018-05-17T04:54:10.824Z,77.13
2018-05-17T04:54:51.271Z,77.7
2018-05-17T04:55:31.556Z,77.51
2018-05-17T04:56:11.980Z,77.03
2018-05-17T04:56:52.380Z,77.32
2018-05-17T04:57:32.809Z,76.84
2018-05-17T04:58:13.225Z,76.88
2018-05-17T04:58:53.631Z,76.5
2018-05-17T04:59:33.965Z,77.26
2018-05-17T05:00:14.392Z,76.31
2018-05-17T05:00:54.790Z,77.17
2018-05-17T05:01:35.167Z,77.65
2018-05-17T05:02:15.562Z,77.36
2018-05-17T05:02:56.071Z,76.73
2018-05-17T05:03:36.344Z,74.53
2018-05-17T05:04:16.757Z,75.2
2018-05-17T05:04:57.105Z,74.82
2018-05-17T05:05:37.569Z,74.59
2018-05-17T05:06:17.938Z,75.2
2018-05-17T05:06:58.322Z,74.73
2018-05-17T05:07:38.721Z,74.53
2018-05-17T05:08:19.127Z,74.53
2018-05-17T05:08:59.504Z,73.48
2018-05-17T05:09:39.876Z,72.91
2018-05-17T05:10:20.350Z,71.76
2018-05-17T05:11:00.724Z,71.76
2018-05-17T05:11:41.111Z,72.39
2018-05-17T05:12:21.535Z,72.81
2018-05-17T05:13:01.935Z,72.62
2018-05-17T05:13:42.328Z,71.95
2018-05-17T05:14:22.728Z,71.57
2018-05-17T05:15:03.098Z,72.05
2018-05-17T05:15:43.484Z,71.47
2018-05-17T05:16:23.929Z,71.57
2018-05-17T05:17:04.312Z,72.33
2018-05-17T05:17:44.721Z,71.53
2018-05-17T05:18:25.106Z,72.14
2018-05-17T05:19:05.520Z,72.72
2018-05-17T05:19:45.905Z,72.24
2018-05-17T05:20:26.335Z,72.33
2018-05-17T05:21:06.728Z,73.1
2018-05-17T05:21:47.091Z,71.47
2018-05-17T05:22:27.490Z,71.95
2018-05-17T05:23:07.893Z,70.33
2018-05-17T05:23:48.302Z,71.86
2018-05-17T05:24:28.738Z,71.57
2018-05-17T05:25:09.089Z,70.81
2018-05-17T05:25:49.454Z,71
2018-05-17T05:26:29.865Z,70.52
2018-05-17T05:27:10.306Z,70.23
2018-05-17T05:27:50.673Z,71.57
2018-05-17T05:28:31.128Z,70.81
2018-05-17T05:29:11.538Z,69.85
2018-05-17T05:29:51.941Z,69.66
2018-05-17T05:30:32.390Z,69.95
2018-05-17T05:31:12.830Z,70.42
2018-05-17T05:31:53.262Z,70.61
2018-05-17T05:32:33.646Z,70.42
2018-05-17T05:33:14.071Z,69.37
2018-05-17T05:33:54.573Z,69.85
2018-05-17T05:34:34.933Z,68.8
2018-05-17T05:35:15.402Z,68.99
2018-05-17T05:35:55.746Z,68.13
2018-05-17T05:36:36.187Z,68.32
2018-05-17T05:37:16.710Z,68.8
2018-05-17T05:37:57.077Z,69.27
2018-05-17T05:38:37.633Z,69.18
2018-05-17T05:39:18.052Z,68.9
2018-05-17T05:39:58.447Z,68.51
2018-05-17T05:40:38.847Z,68.61
2018-05-17T05:41:19.254Z,68.51
2018-05-17T05:41:59.646Z,69.56
2018-05-17T05:42:40.096Z,68.99
2018-05-17T05:43:35.406Z,68.9
2018-05-17T05:44:15.812Z,68.99
2018-05-17T05:44:56.226Z,69.47
2018-05-17T05:45:36.633Z,68.51
2018-05-17T05:46:17.092Z,68.99
2018-05-17T05:46:57.511Z,69.18
2018-05-17T05:47:37.926Z,70.04
2018-05-17T05:48:18.343Z,68.99
2018-05-17T05:48:58.838Z,69.18
2018-05-17T05:49:39.414Z,69.18
2018-05-17T05:50:19.661Z,68.41
2018-05-17T05:51:00.183Z,69.47
2018-05-17T05:57:51.521Z,69.76
2018-05-17T05:58:31.904Z,69.85
2018-05-17T05:59:12.645Z,69.56
2018-05-17T05:59:53.178Z,69.02
2018-05-17T06:00:33.621Z,68.23
2018-05-17T06:01:14.051Z,68.13
2018-05-17T06:01:54.524Z,68.99
2018-05-17T06:02:35.085Z,68.41
2018-05-17T06:03:15.538Z,67.18
2018-05-17T06:03:56.262Z,67.94
2018-05-17T06:04:36.788Z,68.04
2018-05-17T06:05:17.330Z,68.61
2018-05-17T06:05:58.221Z,69.37
2018-05-17T06:06:38.682Z,68.13
2018-05-17T06:07:19.891Z,68.13
2018-05-17T06:07:59.951Z,68.84
2018-05-17T06:08:41.368Z,67.84
2018-05-17T06:09:21.533Z,68.26
2018-05-17T06:10:02.006Z,68.61
2018-05-17T06:10:43.400Z,67.36
2018-05-17T06:11:23.380Z,67.69
2018-05-17T06:12:04.206Z,67.75
2018-05-17T06:12:45.001Z,67.55
2018-05-17T06:13:28.521Z,67.69
2018-05-17T06:14:11.597Z,68.84
2018-05-17T06:14:56.240Z,68.35
2018-05-17T06:15:39.371Z,67.88
2018-05-17T06:16:21.743Z,67.69
2018-05-17T06:17:03.465Z,66.35
2018-05-17T06:17:44.042Z,66.63
2018-05-17T06:18:26.970Z,67.97
2018-05-17T06:19:07.591Z,67.21
2018-05-17T06:19:50.354Z,66.35
2018-05-17T06:20:31.179Z,67.21
2018-05-17T06:21:11.832Z,67.4
2018-05-17T06:21:52.381Z,66.83
2018-05-17T06:22:33.780Z,66.35
2018-05-17T06:23:14.627Z,66.35
2018-05-17T06:23:55.504Z,66.06
2018-05-17T06:24:36.876Z,65.48
2018-05-17T06:25:17.590Z,64.25
2018-05-17T06:25:58.907Z,65.11
2018-05-17T06:26:39.024Z,65.9
2018-05-17T06:27:19.482Z,65.9
2018-05-17T06:28:00.879Z,66.06
2018-05-17T06:28:41.395Z,66.09
2018-05-17T06:29:21.565Z,64.72
2018-05-17T06:30:28.165Z,65.01
2018-05-17T06:31:08.316Z,65.2
2018-05-17T06:31:49.212Z,65.3
2018-05-17T06:32:30.456Z,66.06
2018-05-17T06:33:10.839Z,65.77
2018-05-17T06:33:52.390Z,66.06
2018-05-17T06:34:33.003Z,66.06
2018-05-17T06:35:13.214Z,66.09
2018-05-17T06:35:53.823Z,66.63
2018-05-17T06:36:34.307Z,66
2018-05-17T06:37:15.272Z,65.14
2018-05-17T06:37:57.388Z,65.23
2018-05-17T06:38:37.820Z,63.89
2018-05-17T06:39:18.490Z,65.04
2018-05-17T06:39:59.897Z,64.75
2018-05-17T06:40:40.925Z,64.75
2018-05-17T06:41:21.591Z,64.47
2018-05-17T06:42:01.757Z,64.75
2018-05-17T06:42:43.384Z,64.85
2018-05-17T06:43:23.790Z,64.95
2018-05-17T06:44:04.764Z,64.85
2018-05-17T06:44:45.912Z,64.09
2018-05-17T06:45:26.197Z,64.85
2018-05-17T06:46:06.902Z,64.85
2018-05-17T06:46:47.339Z,64.28
2018-05-17T06:47:27.724Z,63.99
2018-05-17T06:48:08.274Z,64.28
2018-05-17T06:48:48.695Z,63.7
2018-05-17T06:49:29.127Z,63.7
2018-05-17T06:50:09.565Z,63.99
2018-05-17T06:50:49.965Z,63.89
2018-05-17T06:51:30.380Z,64.28
2018-05-17T06:52:10.868Z,63.8
2018-05-17T06:52:51.589Z,63.8
2018-05-17T06:53:32.037Z,63.42
2018-05-17T06:54:27.529Z,63.83
2018-05-17T06:58:50.686Z,63.6
2018-05-17T06:59:31.396Z,63.54
2018-05-17T07:00:11.997Z,63.45
2018-05-17T07:00:52.914Z,62.68
2018-05-17T07:01:33.944Z,62.2
2018-05-17T07:02:15.009Z,62.68
2018-05-17T07:06:14.646Z,62.87
2018-05-17T07:06:55.138Z,62.77
2018-05-17T07:07:35.817Z,62.87
2018-05-17T07:08:16.376Z,62.77
2018-05-17T07:08:56.726Z,62.2
2018-05-17T07:09:37.154Z,62.49
2018-05-17T07:10:17.565Z,62.68
2018-05-17T07:10:58.145Z,62.01
2018-05-17T07:11:41.402Z,62.49
2018-05-17T07:12:21.412Z,62.11
2018-05-17T07:13:01.875Z,61.44
2018-05-17T07:13:42.508Z,61.28
2018-05-17T07:14:22.955Z,62.33
2018-05-17T07:15:03.334Z,62.04
2018-05-17T07:15:43.736Z,62.23
2018-05-17T07:16:24.139Z,61.37
2018-05-17T07:17:04.535Z,61.47
2018-05-17T07:17:45.005Z,60.8
2018-05-17T07:18:25.637Z,61.76
2018-05-17T07:19:05.985Z,60.51
2018-05-17T07:19:46.348Z,60.35
2018-05-17T07:20:26.731Z,60.16
2018-05-17T07:21:07.950Z,59.87
2018-05-17T07:21:48.391Z,60.35
2018-05-17T07:22:28.826Z,59.97
2018-05-17T07:23:09.292Z,59.58
2018-05-17T07:23:49.789Z,59.48
2018-05-17T07:24:30.141Z,58.91
2018-05-17T07:25:10.562Z,57.95
2018-05-17T07:25:50.983Z,58.34
2018-05-17T07:26:31.376Z,58.72
2018-05-17T07:27:11.741Z,59.2
2018-05-17T07:27:52.171Z,59.3
2018-05-17T07:28:32.511Z,59.39
2018-05-17T07:29:13.076Z,59.01
2018-05-17T07:29:53.565Z,58.72
2018-05-17T07:30:33.885Z,58.62
2018-05-17T07:31:14.394Z,58.72
2018-05-17T07:31:54.765Z,58.62
2018-05-17T07:32:35.168Z,59.3
2018-05-17T07:33:15.704Z,59.3
2018-05-17T07:33:56.204Z,58.15
2018-05-17T07:34:36.604Z,58.24
2018-05-17T07:35:17.096Z,57.89
2018-05-17T07:35:57.512Z,56.93
2018-05-17T07:36:37.988Z,57.7
2018-05-17T07:37:18.502Z,57.21
2018-05-17T07:37:58.829Z,57.21
2018-05-17T07:38:39.187Z,56.54
2018-05-17T07:39:19.781Z,56.26
2018-05-17T07:39:59.975Z,56.35
2018-05-17T07:40:40.378Z,56.64
2018-05-17T07:41:20.777Z,54.82
2018-05-17T07:42:01.201Z,55.68
2018-05-17T07:42:41.721Z,56.07
2018-05-17T07:43:22.127Z,56.09
2018-05-17T07:44:03.516Z,55.13
2018-05-17T07:44:43.943Z,54.75
2018-05-17T07:45:24.515Z,54.58
2018-05-17T07:46:06.154Z,53.53
2018-05-17T07:46:46.601Z,53.44
2018-05-17T07:47:27.023Z,53.53
2018-05-17T07:48:07.351Z,53.66
2018-05-17T07:48:47.923Z,53.56
2018-05-17T07:49:28.332Z,52.79
2018-05-17T07:50:08.762Z,53.2
2018-05-17T07:50:49.225Z,52.34
2018-05-17T07:51:29.657Z,51.18
2018-05-17T07:52:10.055Z,49.74
2018-05-17T07:52:51.387Z,50.63
2018-05-17T07:53:31.765Z,50.15
2018-05-17T07:54:12.255Z,49.96
2018-05-17T07:54:52.619Z,50.34
2018-05-17T07:55:33.217Z,49.57
2018-05-17T07:56:13.450Z,50.63
2018-05-17T07:56:53.851Z,50.05
2018-05-17T07:57:34.254Z,49.96
2018-05-17T07:58:14.678Z,49.77
2018-05-17T07:58:55.005Z,49.38
2018-05-17T07:59:36.893Z,49.19
2018-05-17T08:00:17.890Z,49.55
2018-05-17T08:00:58.021Z,50.61
2018-05-17T08:01:39.390Z,50.42
2018-05-17T08:02:19.708Z,51.28
2018-05-17T08:03:00.483Z,51.09
2018-05-17T08:03:40.993Z,50.8
2018-05-17T08:04:21.425Z,51.28
2018-05-17T08:05:01.812Z,50.82
2018-05-17T08:05:42.176Z,50.73
2018-05-17T08:06:22.566Z,50.15
2018-05-17T08:07:03.148Z,49.96
2018-05-17T08:07:43.491Z,49.38
2018-05-17T08:08:23.917Z,50.63
2018-05-17T08:09:04.357Z,50.05
2018-05-17T08:09:44.748Z,49.67
2018-05-17T08:10:25.168Z,48.71
2018-05-17T08:11:05.570Z,49.1
2018-05-17T08:11:46.037Z,49.29
2018-05-17T08:12:26.559Z,49.19
2018-05-17T08:13:06.942Z,48.81
2018-05-17T08:13:47.397Z,49.67
2018-05-17T08:14:28.084Z,49.19
2018-05-17T08:15:08.433Z,49.29
2018-05-17T08:15:48.904Z,49.38
2018-05-17T08:16:29.328Z,49.51
2018-05-17T08:17:09.772Z,49.12
2018-05-17T08:17:50.168Z,49.31
2018-05-17T08:18:30.934Z,49.53
2018-05-17T08:19:11.637Z,49.33
2018-05-17T08:19:53.000Z,48.66
2018-05-17T08:21:55.704Z,48.28
2018-05-17T08:22:36.053Z,48.57
2018-05-17T08:23:16.458Z,48.85
2018-05-17T08:23:56.993Z,48.85
2018-05-17T08:24:38.473Z,48.66
2018-05-17T08:25:18.116Z,48.16
2018-05-17T08:25:58.556Z,48.38
2018-05-17T08:26:39.131Z,48.85
2018-05-17T08:27:19.803Z,48.76
2018-05-17T08:27:59.941Z,48.38
2018-05-17T08:28:40.737Z,48.18
2018-05-17T08:29:22.563Z,47.8
2018-05-17T08:30:03.303Z,46.36
2018-05-17T08:30:43.974Z,47.22
2018-05-17T08:31:24.548Z,46.93
2018-05-17T08:32:05.015Z,48.08
2018-05-17T08:32:45.404Z,47.89
2018-05-17T08:34:34.640Z,47.03
2018-05-17T08:35:29.852Z,47.51
2018-05-17T08:36:25.271Z,46.74
2018-05-17T08:37:05.581Z,47.51
2018-05-17T08:38:07.570Z,47.89
2018-05-17T08:38:48.005Z,47.31
2018-05-17T08:39:28.449Z,47.05
2018-05-17T08:40:23.680Z,46.38
2018-05-17T08:41:17.756Z,46.95
2018-05-17T08:45:24.001Z,45.61
2018-05-17T08:46:04.451Z,45.61
2018-05-17T08:46:44.863Z,45.25
2018-05-17T08:47:25.278Z,45.25
2018-05-17T08:48:06.093Z,45.34
2018-05-17T08:48:48.913Z,45.17
2018-05-17T08:49:29.092Z,44.02
2018-05-17T08:50:10.319Z,44.59
2018-05-17T08:50:50.649Z,44.69
2018-05-17T08:51:32.761Z,44.69
2018-05-17T08:52:12.849Z,44.48
2018-05-17T08:52:53.741Z,44.11
2018-05-17T08:53:33.824Z,44.49
2018-05-17T08:54:14.516Z,44.48
2018-05-17T08:54:55.272Z,44.69
2018-05-17T08:55:35.812Z,44.38
2018-05-17T08:56:16.410Z,43.32
2018-05-17T08:56:57.170Z,44.28
2018-05-17T08:57:37.834Z,44.57
2018-05-17T08:58:17.986Z,44.28
2018-05-17T08:58:58.490Z,44.96
2018-05-17T08:59:46.173Z,45.44
2018-05-17T09:00:41.750Z,43.9
2018-05-17T09:01:28.521Z,44.57
2018-05-17T09:02:23.415Z,44.38
2018-05-17T09:03:03.863Z,43.9
2018-05-17T09:03:58.992Z,44.49
2018-05-17T09:04:54.131Z,44.31
2018-05-17T09:05:49.638Z,43.82
2018-05-17T09:06:45.136Z,43.9
2018-05-17T09:07:25.555Z,43.99
2018-05-17T09:08:20.811Z,44.38
2018-05-17T09:09:01.410Z,43.51
2018-05-17T09:10:11.398Z,44.28
2018-05-17T09:10:51.915Z,44.38
2018-05-17T09:11:46.969Z,44.35
2018-05-17T09:15:17.846Z,44.55
2018-05-17T09:15:58.233Z,43.68
2018-05-17T09:16:53.522Z,44.26
2018-05-17T09:17:33.925Z,43.78
2018-05-17T09:18:29.157Z,43.59
2018-05-17T09:19:09.568Z,43.97
2018-05-17T09:19:56.979Z,43.8
2018-05-17T09:20:37.450Z,43.9
2018-05-17T09:21:32.800Z,43.13
2018-05-17T09:22:13.206Z,43.54
2018-05-17T09:22:53.639Z,43.05
2018-05-17T09:23:34.033Z,42.96
2018-05-17T09:24:14.444Z,42.86
2018-05-17T09:24:54.892Z,42.67
2018-05-17T09:25:36.014Z,42.11
2018-05-17T09:26:16.137Z,41.44
2018-05-17T09:26:56.626Z,41.44
2018-05-17T09:27:37.056Z,41.46
2018-05-17T09:28:17.620Z,40.88
2018-05-17T09:28:58.078Z,40.78
2018-05-17T09:29:38.786Z,40.69
2018-05-17T09:30:19.488Z,40.11
2018-05-17T09:31:00.002Z,40.12
2018-05-17T09:31:43.679Z,40.22
2018-05-17T09:32:30.161Z,39.45
2018-05-17T09:33:11.157Z,39.37
2018-05-17T09:33:50.970Z,38.89
2018-05-17T09:35:18.632Z,39.37
2018-05-17T09:41:51.170Z,37.87
2018-05-17T09:47:48.590Z,35.76
2018-05-17T09:48:28.756Z,34.99
2018-05-17T09:49:09.592Z,35.37
2018-05-17T09:49:50.077Z,35.29
2018-05-17T09:50:30.825Z,34.81
2018-05-17T09:51:11.917Z,34.13
2018-05-17T09:51:52.251Z,34.04
2018-05-17T09:52:32.927Z,34.04
2018-05-17T09:53:13.748Z,34.81
2018-05-17T09:53:54.223Z,35.2
2018-05-17T09:54:35.622Z,35.1
2018-05-17T09:55:17.203Z,35.2
2018-05-17T09:55:57.634Z,35.76
2018-05-17T09:56:39.993Z,35.66
2018-05-17T09:57:20.289Z,36.44
2018-05-17T09:58:00.741Z,35.86
2018-05-17T09:58:41.231Z,36.15
2018-05-17T09:59:22.349Z,36.46
2018-05-17T10:00:03.489Z,36.36
2018-05-17T10:00:43.475Z,36.07
2018-05-17T10:01:23.948Z,35.88
2018-05-17T10:02:04.699Z,35.39
2018-05-17T10:03:15.181Z,35.2
2018-05-17T10:42:20.935Z,31.37
2018-05-17T10:43:01.580Z,31.09
2018-05-17T10:43:42.232Z,31.28
2018-05-17T10:44:22.579Z,31.76
2018-05-17T10:45:03.173Z,31.57
2018-05-17T10:45:43.728Z,31.57
2018-05-17T10:46:24.103Z,31.67
2018-05-17T10:47:05.556Z,31.18
2018-05-17T10:47:45.243Z,31.18
2018-05-17T10:48:25.590Z,30.6
2018-05-17T10:49:05.937Z,31.09
2018-05-17T10:49:46.445Z,31.37
2018-05-17T10:50:26.937Z,31.57
2018-05-17T10:51:07.554Z,31.86
2018-05-17T10:51:47.912Z,31.67
2018-05-17T10:52:28.480Z,31.96
2018-05-17T10:53:09.095Z,31.47
2018-05-17T10:53:49.480Z,31.67
2018-05-17T10:54:30.025Z,32.26
2018-05-17T10:55:10.492Z,31.29
2018-05-17T10:55:51.041Z,31.49
2018-05-17T10:56:31.444Z,31.39
2018-05-17T10:57:11.922Z,31.76
2018-05-17T10:57:52.549Z,31.67
2018-05-17T10:58:33.565Z,31.96
2018-05-17T10:59:13.931Z,32.15
2018-05-17T10:59:54.495Z,31.49
2018-05-17T11:00:35.142Z,31.2
2018-05-17T11:01:16.383Z,31.47
2018-05-17T11:01:58.234Z,31.18
2018-05-17T11:02:38.923Z,31.86
2018-05-17T11:03:19.107Z,31.59
2018-05-17T11:03:59.852Z,31.49
2018-05-17T11:04:40.285Z,31.29
2018-05-17T11:05:21.593Z,31.37
2018-05-17T11:06:01.536Z,31.68
2018-05-17T11:06:42.089Z,31.57
2018-05-17T11:07:22.444Z,31.87
2018-05-17T11:08:02.940Z,31.57
2018-05-17T11:08:43.322Z,31.28
2018-05-17T11:09:23.915Z,31.47
2018-05-17T11:10:04.510Z,30.89
2018-05-17T11:10:45.193Z,32.06
2018-05-17T11:11:25.526Z,31.96
2018-05-17T11:12:06.171Z,31.26
2018-05-17T11:12:46.506Z,31.74
2018-05-17T11:13:26.878Z,32.04
2018-05-17T11:14:07.317Z,31.74
2018-05-17T11:14:48.239Z,32.04
2018-05-17T11:17:03.140Z,31.78
2018-05-17T11:17:48.641Z,31.59
2018-05-17T11:18:29.410Z,31.39
2018-05-17T11:19:10.368Z,31.1
2018-05-17T11:19:50.800Z,31.31
2018-05-17T11:20:32.000Z,30.92
2018-05-17T11:21:12.493Z,30.44
2018-05-17T11:21:53.164Z,30.54
2018-05-17T11:22:34.683Z,30.54
2018-05-17T11:23:15.002Z,30.82
2018-05-17T11:23:56.561Z,30.62